La Blanca, Texas
Current Conditions -  °F | °C
As of 10:55 PM on Saturday 25 Oct 2014 (Local Time) from KT65 Reporting Station
Clear Clear  
Wind Chill: 70°   Ceiling: Unl
Heat Index: 70°   Visibility: 10mi
Dew Point: 62°   Wind: 5mph
Humidity: 77%   Direction: 140°SE
Pressure: 30.11"   Gusts: NA
Location:  26.29°N, 98.04°W
Report Text: KT65 260355Z AUTO 14004KT 10SM CLR 21/17 A3011 RMK AO2 T02100169
Loading
Personal Weather Stations






























Interactive Weather Map New forecast layout! Learn more

10-Day Weather Forecast

Advertisements
Track Severe Weather on mobile